sensor_id;sensor_type;location;lat;lon;timestamp;temperature;humidity
22167;DHT22;11249;52.468;13.776;2022-10-31T00:01:13;8.80;99.90
22167;DHT22;11249;52.468;13.776;2022-10-31T00:03:40;8.80;99.90
22167;DHT22;11249;52.468;13.776;2022-10-31T00:06:07;8.80;99.90
22167;DHT22;11249;52.468;13.776;2022-10-31T00:08:34;8.80;99.90
22167;DHT22;11249;52.468;13.776;2022-10-31T00:11:01;8.80;99.90
22167;DHT22;11249;52.468;13.776;2022-10-31T00:13:28;8.80;99.90
22167;DHT22;11249;52.468;13.776;2022-10-31T00:15:55;8.70;99.90
22167;DHT22;11249;52.468;13.776;2022-10-31T00:18:21;8.70;99.90
22167;DHT22;11249;52.468;13.776;2022-10-31T00:20:48;8.70;99.90
22167;DHT22;11249;52.468;13.776;2022-10-31T00:23:15;8.70;99.90
22167;DHT22;11249;52.468;13.776;2022-10-31T00:25:41;8.70;99.90
22167;DHT22;11249;52.468;13.776;2022-10-31T00:28:09;8.70;99.90
22167;DHT22;11249;52.468;13.776;2022-10-31T00:30:38;8.70;99.90
22167;DHT22;11249;52.468;13.776;2022-10-31T00:33:05;8.60;99.90
22167;DHT22;11249;52.468;13.776;2022-10-31T00:35:32;8.60;99.90
22167;DHT22;11249;52.468;13.776;2022-10-31T00:37:59;8.60;99.90
22167;DHT22;11249;52.468;13.776;2022-10-31T00:40:26;8.60;99.90
22167;DHT22;11249;52.468;13.776;2022-10-31T00:42:53;8.50;99.90
22167;DHT22;11249;52.468;13.776;2022-10-31T00:45:19;8.50;99.90
22167;DHT22;11249;52.468;13.776;2022-10-31T00:47:46;8.50;99.90
22167;DHT22;11249;52.468;13.776;2022-10-31T00:50:13;8.50;99.90
22167;DHT22;11249;52.468;13.776;2022-10-31T00:52:39;8.50;99.90
22167;DHT22;11249;52.468;13.776;2022-10-31T00:55:06;8.50;99.90
22167;DHT22;11249;52.468;13.776;2022-10-31T00:57:33;8.50;99.90
22167;DHT22;11249;52.468;13.776;2022-10-31T00:59:59;8.50;99.90
22167;DHT22;11249;52.468;13.776;2022-10-31T01:02:26;8.40;99.90
22167;DHT22;11249;52.468;13.776;2022-10-31T01:04:53;8.40;99.90
22167;DHT22;11249;52.468;13.776;2022-10-31T01:07:20;8.40;99.90
22167;DHT22;11249;52.468;13.776;2022-10-31T01:09:47;8.40;99.90
22167;DHT22;11249;52.468;13.776;2022-10-31T01:12:13;8.40;99.90
22167;DHT22;11249;52.468;13.776;2022-10-31T01:14:46;8.40;99.90
22167;DHT22;11249;52.468;13.776;2022-10-31T01:17:13;8.30;99.90
22167;DHT22;11249;52.468;13.776;2022-10-31T01:19:40;8.30;99.90
22167;DHT22;11249;52.468;13.776;2022-10-31T01:22:07;8.30;99.90
22167;DHT22;11249;52.468;13.776;2022-10-31T01:24:34;8.30;99.90
22167;DHT22;11249;52.468;13.776;2022-10-31T01:27:00;8.30;99.90
22167;DHT22;11249;52.468;13.776;2022-10-31T01:29:27;8.30;99.90
22167;DHT22;11249;52.468;13.776;2022-10-31T01:31:53;8.30;99.90
22167;DHT22;11249;52.468;13.776;2022-10-31T01:34:20;8.30;99.90
22167;DHT22;11249;52.468;13.776;2022-10-31T01:36:47;8.30;99.90
22167;DHT22;11249;52.468;13.776;2022-10-31T01:39:18;8.30;99.90
22167;DHT22;11249;52.468;13.776;2022-10-31T01:41:48;8.20;99.90
22167;DHT22;11249;52.468;13.776;2022-10-31T01:46:52;8.20;99.90
22167;DHT22;11249;52.468;13.776;2022-10-31T01:49:36;8.20;99.90
22167;DHT22;11249;52.468;13.776;2022-10-31T01:54:40;8.20;99.90
22167;DHT22;11249;52.468;13.776;2022-10-31T01:57:10;8.10;99.90
22167;DHT22;11249;52.468;13.776;2022-10-31T01:59:39;8.10;99.90
22167;DHT22;11249;52.468;13.776;2022-10-31T02:02:06;8.10;99.90
22167;DHT22;11249;52.468;13.776;2022-10-31T02:04:34;8.10;99.90
22167;DHT22;11249;52.468;13.776;2022-10-31T02:07:05;8.10;99.90
22167;DHT22;11249;52.468;13.776;2022-10-31T02:09:34;8.10;99.90
22167;DHT22;11249;52.468;13.776;2022-10-31T02:12:01;8.10;99.90
22167;DHT22;11249;52.468;13.776;2022-10-31T02:14:29;8.00;99.90
22167;DHT22;11249;52.468;13.776;2022-10-31T02:16:57;8.00;99.90
22167;DHT22;11249;52.468;13.776;2022-10-31T02:19:46;8.00;99.90
22167;DHT22;11249;52.468;13.776;2022-10-31T02:22:26;8.00;99.90
22167;DHT22;11249;52.468;13.776;2022-10-31T02:25:21;8.00;99.90
22167;DHT22;11249;52.468;13.776;2022-10-31T02:28:24;8.00;99.90
22167;DHT22;11249;52.468;13.776;2022-10-31T02:34:10;7.90;99.90
22167;DHT22;11249;52.468;13.776;2022-10-31T02:36:45;7.90;99.90
22167;DHT22;11249;52.468;13.776;2022-10-31T02:39:22;7.90;99.90
22167;DHT22;11249;52.468;13.776;2022-10-31T02:44:57;7.90;99.90
22167;DHT22;11249;52.468;13.776;2022-10-31T02:47:33;7.90;99.90
22167;DHT22;11249;52.468;13.776;2022-10-31T02:50:06;7.80;99.90
22167;DHT22;11249;52.468;13.776;2022-10-31T02:52:35;7.80;99.90
22167;DHT22;11249;52.468;13.776;2022-10-31T02:57:56;7.80;99.90
22167;DHT22;11249;52.468;13.776;2022-10-31T03:00:25;7.80;99.90
22167;DHT22;11249;52.468;13.776;2022-10-31T03:03:30;7.80;99.90
22167;DHT22;11249;52.468;13.776;2022-10-31T03:08:50;7.70;99.90
22167;DHT22;11249;52.468;13.776;2022-10-31T03:11:21;7.70;99.90
22167;DHT22;11249;52.468;13.776;2022-10-31T03:14:00;7.70;99.90
22167;DHT22;11249;52.468;13.776;2022-10-31T03:16:42;7.70;99.90
22167;DHT22;11249;52.468;13.776;2022-10-31T03:19:13;7.70;99.90
22167;DHT22;11249;52.468;13.776;2022-10-31T03:21:46;7.70;99.90
22167;DHT22;11249;52.468;13.776;2022-10-31T03:24:14;7.70;99.90
22167;DHT22;11249;52.468;13.776;2022-10-31T03:26:47;7.70;99.90
22167;DHT22;11249;52.468;13.776;2022-10-31T03:29:17;7.70;99.90
22167;DHT22;11249;52.468;13.776;2022-10-31T03:31:51;7.70;99.90
22167;DHT22;11249;52.468;13.776;2022-10-31T03:34:19;7.60;99.90
22167;DHT22;11249;52.468;13.776;2022-10-31T03:36:49;7.60;99.90
22167;DHT22;11249;52.468;13.776;2022-10-31T03:39:19;7.60;99.90
22167;DHT22;11249;52.468;13.776;2022-10-31T03:41:59;7.60;99.90
22167;DHT22;11249;52.468;13.776;2022-10-31T03:44:27;7.60;99.90
22167;DHT22;11249;52.468;13.776;2022-10-31T03:46:55;7.60;99.90
22167;DHT22;11249;52.468;13.776;2022-10-31T03:49:22;7.60;99.90
22167;DHT22;11249;52.468;13.776;2022-10-31T03:51:54;7.60;99.90
22167;DHT22;11249;52.468;13.776;2022-10-31T03:55:05;7.50;99.90
22167;DHT22;11249;52.468;13.776;2022-10-31T03:57:55;7.50;99.90
22167;DHT22;11249;52.468;13.776;2022-10-31T04:00:24;7.50;99.90
22167;DHT22;11249;52.468;13.776;2022-10-31T04:03:03;7.50;99.90
22167;DHT22;11249;52.468;13.776;2022-10-31T04:05:31;7.50;99.90
22167;DHT22;11249;52.468;13.776;2022-10-31T04:07:59;7.50;99.90
22167;DHT22;11249;52.468;13.776;2022-10-31T04:10:28;7.50;99.90
22167;DHT22;11249;52.468;13.776;2022-10-31T04:13:05;7.50;99.90
22167;DHT22;11249;52.468;13.776;2022-10-31T04:15:35;7.50;99.90
22167;DHT22;11249;52.468;13.776;2022-10-31T04:18:04;7.50;99.90
22167;DHT22;11249;52.468;13.776;2022-10-31T04:20:36;7.50;99.90
22167;DHT22;11249;52.468;13.776;2022-10-31T04:23:04;7.50;99.90
22167;DHT22;11249;52.468;13.776;2022-10-31T04:25:31;7.50;99.90
22167;DHT22;11249;52.468;13.776;2022-10-31T04:27:57;7.50;99.90
22167;DHT22;11249;52.468;13.776;2022-10-31T04:30:24;7.50;99.90
22167;DHT22;11249;52.468;13.776;2022-10-31T04:32:51;7.50;99.90
22167;DHT22;11249;52.468;13.776;2022-10-31T04:35:18;7.50;99.90
22167;DHT22;11249;52.468;13.776;2022-10-31T04:37:44;7.50;99.90
22167;DHT22;11249;52.468;13.776;2022-10-31T04:40:11;7.50;99.90
22167;DHT22;11249;52.468;13.776;2022-10-31T04:42:38;7.50;99.90
22167;DHT22;11249;52.468;13.776;2022-10-31T04:45:05;7.50;99.90
22167;DHT22;11249;52.468;13.776;2022-10-31T04:47:32;7.50;99.90
22167;DHT22;11249;52.468;13.776;2022-10-31T04:50:00;7.40;99.90
22167;DHT22;11249;52.468;13.776;2022-10-31T04:52:27;7.40;99.90
22167;DHT22;11249;52.468;13.776;2022-10-31T04:54:53;7.40;99.90
22167;DHT22;11249;52.468;13.776;2022-10-31T04:57:20;7.40;99.90
22167;DHT22;11249;52.468;13.776;2022-10-31T04:59:47;7.40;99.90
22167;DHT22;11249;52.468;13.776;2022-10-31T05:02:14;7.40;99.90
22167;DHT22;11249;52.468;13.776;2022-10-31T05:04:41;7.40;99.90
22167;DHT22;11249;52.468;13.776;2022-10-31T05:07:07;7.40;99.90
22167;DHT22;11249;52.468;13.776;2022-10-31T05:09:34;7.40;99.90
22167;DHT22;11249;52.468;13.776;2022-10-31T05:12:01;7.40;99.90
22167;DHT22;11249;52.468;13.776;2022-10-31T05:14:27;7.40;99.90
22167;DHT22;11249;52.468;13.776;2022-10-31T05:16:54;7.40;99.90
22167;DHT22;11249;52.468;13.776;2022-10-31T05:19:21;7.30;99.90
22167;DHT22;11249;52.468;13.776;2022-10-31T05:21:47;7.40;99.90
22167;DHT22;11249;52.468;13.776;2022-10-31T05:24:14;7.30;99.90
22167;DHT22;11249;52.468;13.776;2022-10-31T05:26:40;7.30;99.90
22167;DHT22;11249;52.468;13.776;2022-10-31T05:29:07;7.30;99.90
22167;DHT22;11249;52.468;13.776;2022-10-31T05:31:34;7.30;99.90
22167;DHT22;11249;52.468;13.776;2022-10-31T05:34:00;7.30;99.90
22167;DHT22;11249;52.468;13.776;2022-10-31T05:36:27;7.30;99.90
22167;DHT22;11249;52.468;13.776;2022-10-31T05:38:54;7.30;99.90
22167;DHT22;11249;52.468;13.776;2022-10-31T05:41:20;7.30;99.90
22167;DHT22;11249;52.468;13.776;2022-10-31T05:43:47;7.30;99.90
22167;DHT22;11249;52.468;13.776;2022-10-31T05:46:14;7.30;99.90
22167;DHT22;11249;52.468;13.776;2022-10-31T05:48:40;7.30;99.90
22167;DHT22;11249;52.468;13.776;2022-10-31T05:51:07;7.30;99.90
22167;DHT22;11249;52.468;13.776;2022-10-31T05:53:33;7.30;99.90
22167;DHT22;11249;52.468;13.776;2022-10-31T05:56:00;7.30;99.90
22167;DHT22;11249;52.468;13.776;2022-10-31T05:58:27;7.30;99.90
22167;DHT22;11249;52.468;13.776;2022-10-31T06:00:53;7.30;99.90
22167;DHT22;11249;52.468;13.776;2022-10-31T06:03:44;7.30;99.90
22167;DHT22;11249;52.468;13.776;2022-10-31T06:06:11;7.30;99.90
22167;DHT22;11249;52.468;13.776;2022-10-31T06:08:38;7.30;99.90
22167;DHT22;11249;52.468;13.776;2022-10-31T06:11:04;7.30;99.90
22167;DHT22;11249;52.468;13.776;2022-10-31T06:13:31;7.30;99.90
22167;DHT22;11249;52.468;13.776;2022-10-31T06:15:58;7.40;99.90
22167;DHT22;11249;52.468;13.776;2022-10-31T06:18:24;7.30;99.90
22167;DHT22;11249;52.468;13.776;2022-10-31T06:21:15;7.40;99.90
22167;DHT22;11249;52.468;13.776;2022-10-31T06:23:44;7.40;99.90
22167;DHT22;11249;52.468;13.776;2022-10-31T06:26:11;7.40;99.90
22167;DHT22;11249;52.468;13.776;2022-10-31T06:28:38;7.40;99.90
22167;DHT22;11249;52.468;13.776;2022-10-31T06:31:05;7.40;99.90
22167;DHT22;11249;52.468;13.776;2022-10-31T06:33:32;7.50;99.90
22167;DHT22;11249;52.468;13.776;2022-10-31T06:36:00;7.50;99.90
22167;DHT22;11249;52.468;13.776;2022-10-31T06:38:27;7.50;99.90
22167;DHT22;11249;52.468;13.776;2022-10-31T06:40:54;7.60;99.90
22167;DHT22;11249;52.468;13.776;2022-10-31T06:43:21;7.60;99.90
22167;DHT22;11249;52.468;13.776;2022-10-31T06:45:48;7.60;99.90
22167;DHT22;11249;52.468;13.776;2022-10-31T06:48:15;7.60;99.90
22167;DHT22;11249;52.468;13.776;2022-10-31T06:50:44;7.70;99.90
22167;DHT22;11249;52.468;13.776;2022-10-31T06:53:10;7.70;99.90
22167;DHT22;11249;52.468;13.776;2022-10-31T06:55:38;7.70;99.90
22167;DHT22;11249;52.468;13.776;2022-10-31T06:58:04;7.80;99.90
22167;DHT22;11249;52.468;13.776;2022-10-31T07:00:32;7.80;99.90
22167;DHT22;11249;52.468;13.776;2022-10-31T07:03:04;7.90;99.90
22167;DHT22;11249;52.468;13.776;2022-10-31T07:05:31;7.90;99.90
22167;DHT22;11249;52.468;13.776;2022-10-31T07:08:00;7.90;99.90
22167;DHT22;11249;52.468;13.776;2022-10-31T07:10:29;8.00;99.90
22167;DHT22;11249;52.468;13.776;2022-10-31T07:13:03;8.10;99.90
22167;DHT22;11249;52.468;13.776;2022-10-31T07:15:34;8.10;99.90
22167;DHT22;11249;52.468;13.776;2022-10-31T07:18:02;8.20;99.90
22167;DHT22;11249;52.468;13.776;2022-10-31T07:20:29;8.20;99.90
22167;DHT22;11249;52.468;13.776;2022-10-31T07:22:56;8.30;99.90
22167;DHT22;11249;52.468;13.776;2022-10-31T07:25:23;8.30;99.90
22167;DHT22;11249;52.468;13.776;2022-10-31T07:27:50;8.40;99.90
22167;DHT22;11249;52.468;13.776;2022-10-31T07:30:17;8.50;99.90
22167;DHT22;11249;52.468;13.776;2022-10-31T07:32:49;8.60;99.90
22167;DHT22;11249;52.468;13.776;2022-10-31T07:35:18;8.70;99.90
22167;DHT22;11249;52.468;13.776;2022-10-31T07:37:45;8.90;99.90
22167;DHT22;11249;52.468;13.776;2022-10-31T07:40:13;9.10;99.90
22167;DHT22;11249;52.468;13.776;2022-10-31T07:42:41;9.30;99.90
22167;DHT22;11249;52.468;13.776;2022-10-31T07:45:11;9.40;99.90
22167;DHT22;11249;52.468;13.776;2022-10-31T07:47:48;9.60;99.90
22167;DHT22;11249;52.468;13.776;2022-10-31T07:50:20;9.80;99.90
22167;DHT22;11249;52.468;13.776;2022-10-31T07:52:48;10.00;99.90
22167;DHT22;11249;52.468;13.776;2022-10-31T07:55:15;10.10;99.90
22167;DHT22;11249;52.468;13.776;2022-10-31T07:57:42;10.30;99.90
22167;DHT22;11249;52.468;13.776;2022-10-31T08:00:10;10.50;99.90
22167;DHT22;11249;52.468;13.776;2022-10-31T08:02:36;10.80;99.90
22167;DHT22;11249;52.468;13.776;2022-10-31T08:05:03;11.00;99.90
22167;DHT22;11249;52.468;13.776;2022-10-31T08:07:35;11.20;99.90
22167;DHT22;11249;52.468;13.776;2022-10-31T08:10:07;11.50;99.90
22167;DHT22;11249;52.468;13.776;2022-10-31T08:12:34;11.90;99.90
22167;DHT22;11249;52.468;13.776;2022-10-31T08:15:01;12.10;99.90
22167;DHT22;11249;52.468;13.776;2022-10-31T08:17:28;12.30;99.90
22167;DHT22;11249;52.468;13.776;2022-10-31T08:19:56;12.40;99.90
22167;DHT22;11249;52.468;13.776;2022-10-31T08:22:22;12.50;99.90
22167;DHT22;11249;52.468;13.776;2022-10-31T08:24:49;12.60;99.90
22167;DHT22;11249;52.468;13.776;2022-10-31T08:27:16;12.70;99.90
22167;DHT22;11249;52.468;13.776;2022-10-31T08:29:43;12.80;99.90
22167;DHT22;11249;52.468;13.776;2022-10-31T08:32:09;13.00;99.90
22167;DHT22;11249;52.468;13.776;2022-10-31T08:34:36;13.10;99.90
22167;DHT22;11249;52.468;13.776;2022-10-31T08:37:26;13.20;99.90
22167;DHT22;11249;52.468;13.776;2022-10-31T08:39:53;13.30;99.90
22167;DHT22;11249;52.468;13.776;2022-10-31T08:42:20;13.50;99.90
22167;DHT22;11249;52.468;13.776;2022-10-31T08:44:46;13.50;99.90
22167;DHT22;11249;52.468;13.776;2022-10-31T08:47:13;13.60;99.90
22167;DHT22;11249;52.468;13.776;2022-10-31T08:49:40;13.60;99.90
22167;DHT22;11249;52.468;13.776;2022-10-31T08:52:06;13.70;99.90
22167;DHT22;11249;52.468;13.776;2022-10-31T08:54:39;13.70;99.90
22167;DHT22;11249;52.468;13.776;2022-10-31T08:57:06;13.70;99.90
22167;DHT22;11249;52.468;13.776;2022-10-31T08:59:33;13.70;99.90
22167;DHT22;11249;52.468;13.776;2022-10-31T09:01:59;13.70;99.90
22167;DHT22;11249;52.468;13.776;2022-10-31T09:04:26;13.70;99.90
22167;DHT22;11249;52.468;13.776;2022-10-31T09:06:53;13.70;99.90
22167;DHT22;11249;52.468;13.776;2022-10-31T09:09:40;13.70;99.90
22167;DHT22;11249;52.468;13.776;2022-10-31T09:12:06;13.80;99.90
22167;DHT22;11249;52.468;13.776;2022-10-31T09:14:33;13.80;99.90
22167;DHT22;11249;52.468;13.776;2022-10-31T09:17:00;13.90;99.90
22167;DHT22;11249;52.468;13.776;2022-10-31T09:19:26;13.90;99.90
22167;DHT22;11249;52.468;13.776;2022-10-31T09:21:54;13.90;99.90
22167;DHT22;11249;52.468;13.776;2022-10-31T09:24:21;14.00;99.90
22167;DHT22;11249;52.468;13.776;2022-10-31T09:26:48;14.00;99.90
22167;DHT22;11249;52.468;13.776;2022-10-31T09:29:14;14.00;99.90
22167;DHT22;11249;52.468;13.776;2022-10-31T09:31:41;14.10;99.90
22167;DHT22;11249;52.468;13.776;2022-10-31T09:34:10;14.10;99.90
22167;DHT22;11249;52.468;13.776;2022-10-31T09:36:40;14.20;99.90
22167;DHT22;11249;52.468;13.776;2022-10-31T09:39:06;14.20;99.90
22167;DHT22;11249;52.468;13.776;2022-10-31T09:42:01;14.30;99.90
22167;DHT22;11249;52.468;13.776;2022-10-31T09:47:33;14.50;99.90
22167;DHT22;11249;52.468;13.776;2022-10-31T09:50:27;14.60;99.90
22167;DHT22;11249;52.468;13.776;2022-10-31T09:53:08;14.60;99.90
22167;DHT22;11249;52.468;13.776;2022-10-31T09:55:40;14.60;99.90
22167;DHT22;11249;52.468;13.776;2022-10-31T09:58:19;14.60;99.90
22167;DHT22;11249;52.468;13.776;2022-10-31T10:00:47;14.70;99.90
22167;DHT22;11249;52.468;13.776;2022-10-31T10:03:44;14.70;99.90
22167;DHT22;11249;52.468;13.776;2022-10-31T10:06:17;14.70;99.90
22167;DHT22;11249;52.468;13.776;2022-10-31T10:08:45;14.70;99.90
22167;DHT22;11249;52.468;13.776;2022-10-31T10:14:09;14.80;99.90
22167;DHT22;11249;52.468;13.776;2022-10-31T10:20:19;15.00;99.90
22167;DHT22;11249;52.468;13.776;2022-10-31T10:25:22;15.30;99.90
22167;DHT22;11249;52.468;13.776;2022-10-31T10:28:23;15.40;99.90
22167;DHT22;11249;52.468;13.776;2022-10-31T10:31:08;15.40;99.90
22167;DHT22;11249;52.468;13.776;2022-10-31T10:33:40;15.40;99.90
22167;DHT22;11249;52.468;13.776;2022-10-31T10:36:16;15.50;99.90
22167;DHT22;11249;52.468;13.776;2022-10-31T10:38:55;15.50;99.90
22167;DHT22;11249;52.468;13.776;2022-10-31T10:41:27;15.60;99.90
22167;DHT22;11249;52.468;13.776;2022-10-31T10:44:00;15.60;99.90
22167;DHT22;11249;52.468;13.776;2022-10-31T10:46:37;15.60;99.90
22167;DHT22;11249;52.468;13.776;2022-10-31T10:49:35;15.70;99.90
22167;DHT22;11249;52.468;13.776;2022-10-31T10:55:14;15.90;99.90
22167;DHT22;11249;52.468;13.776;2022-10-31T10:58:02;16.00;99.90
22167;DHT22;11249;52.468;13.776;2022-10-31T11:00:32;16.20;99.90
22167;DHT22;11249;52.468;13.776;2022-10-31T11:03:00;16.30;99.90
22167;DHT22;11249;52.468;13.776;2022-10-31T11:05:37;16.50;99.90
22167;DHT22;11249;52.468;13.776;2022-10-31T11:08:06;16.70;99.90
22167;DHT22;11249;52.468;13.776;2022-10-31T11:10:33;16.90;99.90
22167;DHT22;11249;52.468;13.776;2022-10-31T11:18:39;17.50;99.90
22167;DHT22;11249;52.468;13.776;2022-10-31T11:21:25;17.70;99.90
22167;DHT22;11249;52.468;13.776;2022-10-31T11:26:38;17.80;99.90
22167;DHT22;11249;52.468;13.776;2022-10-31T11:31:42;17.80;99.90
22167;DHT22;11249;52.468;13.776;2022-10-31T11:34:18;17.70;99.90
22167;DHT22;11249;52.468;13.776;2022-10-31T11:36:46;17.70;99.90
22167;DHT22;11249;52.468;13.776;2022-10-31T11:39:18;17.70;99.90
22167;DHT22;11249;52.468;13.776;2022-10-31T11:41:46;17.80;99.90
22167;DHT22;11249;52.468;13.776;2022-10-31T11:44:19;17.80;99.90
22167;DHT22;11249;52.468;13.776;2022-10-31T11:46:56;17.90;99.90
22167;DHT22;11249;52.468;13.776;2022-10-31T11:49:31;18.10;99.90
22167;DHT22;11249;52.468;13.776;2022-10-31T11:52:12;18.20;99.90
22167;DHT22;11249;52.468;13.776;2022-10-31T11:54:55;18.40;99.90
22167;DHT22;11249;52.468;13.776;2022-10-31T11:57:26;18.40;99.90
22167;DHT22;11249;52.468;13.776;2022-10-31T11:59:55;18.60;99.90
22167;DHT22;11249;52.468;13.776;2022-10-31T12:02:22;18.70;99.90
22167;DHT22;11249;52.468;13.776;2022-10-31T12:04:58;18.80;99.90
22167;DHT22;11249;52.468;13.776;2022-10-31T12:07:27;18.90;99.90
22167;DHT22;11249;52.468;13.776;2022-10-31T12:09:54;18.90;99.90
22167;DHT22;11249;52.468;13.776;2022-10-31T12:12:52;19.10;99.90
22167;DHT22;11249;52.468;13.776;2022-10-31T12:15:32;19.20;99.90
22167;DHT22;11249;52.468;13.776;2022-10-31T12:23:53;19.40;99.90
22167;DHT22;11249;52.468;13.776;2022-10-31T12:26:38;19.40;99.90
22167;DHT22;11249;52.468;13.776;2022-10-31T12:30:06;19.40;99.90
22167;DHT22;11249;52.468;13.776;2022-10-31T12:32:36;19.20;99.90
22167;DHT22;11249;52.468;13.776;2022-10-31T12:43:57;19.40;99.90
22167;DHT22;11249;52.468;13.776;2022-10-31T12:46:51;19.40;99.90
22167;DHT22;11249;52.468;13.776;2022-10-31T12:49:48;19.50;99.90
22167;DHT22;11249;52.468;13.776;2022-10-31T12:52:40;19.50;99.90
22167;DHT22;11249;52.468;13.776;2022-10-31T12:55:26;19.60;99.90
22167;DHT22;11249;52.468;13.776;2022-10-31T12:58:02;19.70;99.90
22167;DHT22;11249;52.468;13.776;2022-10-31T13:00:32;19.60;99.90
22167;DHT22;11249;52.468;13.776;2022-10-31T13:03:26;19.70;99.90
22167;DHT22;11249;52.468;13.776;2022-10-31T13:06:02;19.70;99.90
22167;DHT22;11249;52.468;13.776;2022-10-31T13:08:37;19.70;99.90
22167;DHT22;11249;52.468;13.776;2022-10-31T13:11:26;19.70;99.90
22167;DHT22;11249;52.468;13.776;2022-10-31T13:14:11;19.60;99.90
22167;DHT22;11249;52.468;13.776;2022-10-31T13:16:43;19.60;99.90
22167;DHT22;11249;52.468;13.776;2022-10-31T13:19:28;19.70;99.90
22167;DHT22;11249;52.468;13.776;2022-10-31T13:22:22;19.70;99.90
22167;DHT22;11249;52.468;13.776;2022-10-31T13:27:59;19.60;99.90
22167;DHT22;11249;52.468;13.776;2022-10-31T13:30:31;19.60;99.90
22167;DHT22;11249;52.468;13.776;2022-10-31T13:33:00;19.50;99.90
22167;DHT22;11249;52.468;13.776;2022-10-31T13:38:23;19.60;99.90
22167;DHT22;11249;52.468;13.776;2022-10-31T13:41:12;19.50;99.90
22167;DHT22;11249;52.468;13.776;2022-10-31T13:44:12;19.60;99.90
22167;DHT22;11249;52.468;13.776;2022-10-31T13:46:41;19.70;99.90
22167;DHT22;11249;52.468;13.776;2022-10-31T13:49:39;19.80;99.90
22167;DHT22;11249;52.468;13.776;2022-10-31T13:54:49;19.80;99.90
22167;DHT22;11249;52.468;13.776;2022-10-31T13:57:37;19.70;99.90
22167;DHT22;11249;52.468;13.776;2022-10-31T14:02:52;19.50;99.90
22167;DHT22;11249;52.468;13.776;2022-10-31T14:05:29;19.50;99.90
22167;DHT22;11249;52.468;13.776;2022-10-31T14:07:59;19.50;99.90
22167;DHT22;11249;52.468;13.776;2022-10-31T14:10:36;19.50;99.90
22167;DHT22;11249;52.468;13.776;2022-10-31T14:13:35;19.50;99.90
22167;DHT22;11249;52.468;13.776;2022-10-31T14:16:28;19.40;99.90
22167;DHT22;11249;52.468;13.776;2022-10-31T14:19:08;19.30;99.90
22167;DHT22;11249;52.468;13.776;2022-10-31T14:21:41;19.20;99.90
22167;DHT22;11249;52.468;13.776;2022-10-31T14:26:56;19.00;99.90
22167;DHT22;11249;52.468;13.776;2022-10-31T14:29:26;18.90;99.90
22167;DHT22;11249;52.468;13.776;2022-10-31T14:31:55;18.70;99.90
22167;DHT22;11249;52.468;13.776;2022-10-31T14:34:36;18.60;99.90
22167;DHT22;11249;52.468;13.776;2022-10-31T14:37:29;18.50;99.90
22167;DHT22;11249;52.468;13.776;2022-10-31T14:40:07;18.30;99.90
22167;DHT22;11249;52.468;13.776;2022-10-31T14:43:13;18.10;99.90
22167;DHT22;11249;52.468;13.776;2022-10-31T14:46:08;18.00;99.90
22167;DHT22;11249;52.468;13.776;2022-10-31T14:51:20;17.60;99.90
22167;DHT22;11249;52.468;13.776;2022-10-31T14:53:54;17.50;99.90
22167;DHT22;11249;52.468;13.776;2022-10-31T14:56:25;17.30;99.90
22167;DHT22;11249;52.468;13.776;2022-10-31T14:58:59;17.20;99.90
22167;DHT22;11249;52.468;13.776;2022-10-31T15:01:34;17.10;99.90
22167;DHT22;11249;52.468;13.776;2022-10-31T15:04:16;17.00;99.90
22167;DHT22;11249;52.468;13.776;2022-10-31T15:06:54;16.80;99.90
22167;DHT22;11249;52.468;13.776;2022-10-31T15:09:32;16.70;99.90
22167;DHT22;11249;52.468;13.776;2022-10-31T15:12:22;16.60;99.90
22167;DHT22;11249;52.468;13.776;2022-10-31T15:14:46;16.40;99.90
22167;DHT22;11249;52.468;13.776;2022-10-31T15:17:13;16.30;99.90
22167;DHT22;11249;52.468;13.776;2022-10-31T15:19:42;16.20;99.90
22167;DHT22;11249;52.468;13.776;2022-10-31T15:22:16;16.00;99.90
22167;DHT22;11249;52.468;13.776;2022-10-31T15:24:43;15.90;99.90
22167;DHT22;11249;52.468;13.776;2022-10-31T15:27:15;15.80;99.90
22167;DHT22;11249;52.468;13.776;2022-10-31T15:29:53;15.70;99.90
22167;DHT22;11249;52.468;13.776;2022-10-31T15:32:27;15.60;99.90
22167;DHT22;11249;52.468;13.776;2022-10-31T15:34:55;15.50;99.90
22167;DHT22;11249;52.468;13.776;2022-10-31T15:37:24;15.40;99.90
22167;DHT22;11249;52.468;13.776;2022-10-31T15:39:52;15.30;99.90
22167;DHT22;11249;52.468;13.776;2022-10-31T15:42:28;15.20;99.90
22167;DHT22;11249;52.468;13.776;2022-10-31T15:47:33;15.00;99.90
22167;DHT22;11249;52.468;13.776;2022-10-31T15:50:01;14.90;99.90
22167;DHT22;11249;52.468;13.776;2022-10-31T15:52:39;14.80;99.90
22167;DHT22;11249;52.468;13.776;2022-10-31T15:55:24;14.70;99.90
22167;DHT22;11249;52.468;13.776;2022-10-31T15:57:57;14.60;99.90
22167;DHT22;11249;52.468;13.776;2022-10-31T16:00:30;14.50;99.90
22167;DHT22;11249;52.468;13.776;2022-10-31T16:03:05;14.40;99.90
22167;DHT22;11249;52.468;13.776;2022-10-31T16:05:51;14.30;99.90
22167;DHT22;11249;52.468;13.776;2022-10-31T16:11:01;14.10;99.90
22167;DHT22;11249;52.468;13.776;2022-10-31T16:14:07;14.10;99.90
22167;DHT22;11249;52.468;13.776;2022-10-31T16:16:44;14.00;99.90
22167;DHT22;11249;52.468;13.776;2022-10-31T16:19:18;13.90;99.90
22167;DHT22;11249;52.468;13.776;2022-10-31T16:21:48;13.90;99.90
22167;DHT22;11249;52.468;13.776;2022-10-31T16:24:35;13.80;99.90
22167;DHT22;11249;52.468;13.776;2022-10-31T16:27:06;13.80;99.90
22167;DHT22;11249;52.468;13.776;2022-10-31T16:29:42;13.60;99.90
22167;DHT22;11249;52.468;13.776;2022-10-31T16:32:32;13.60;99.90
22167;DHT22;11249;52.468;13.776;2022-10-31T16:35:46;13.60;99.90
22167;DHT22;11249;52.468;13.776;2022-10-31T16:37:47;13.50;99.90
22167;DHT22;11249;52.468;13.776;2022-10-31T16:40:16;13.40;99.90
22167;DHT22;11249;52.468;13.776;2022-10-31T16:42:44;13.40;99.90
22167;DHT22;11249;52.468;13.776;2022-10-31T16:45:22;13.30;99.90
22167;DHT22;11249;52.468;13.776;2022-10-31T16:47:49;13.30;99.90
22167;DHT22;11249;52.468;13.776;2022-10-31T16:50:24;13.20;99.90
22167;DHT22;11249;52.468;13.776;2022-10-31T16:52:52;13.20;99.90
22167;DHT22;11249;52.468;13.776;2022-10-31T16:55:42;13.10;99.90
22167;DHT22;11249;52.468;13.776;2022-10-31T16:58:27;13.10;99.90
22167;DHT22;11249;52.468;13.776;2022-10-31T17:00:54;13.00;99.90
22167;DHT22;11249;52.468;13.776;2022-10-31T17:03:22;12.90;99.90
22167;DHT22;11249;52.468;13.776;2022-10-31T17:05:49;12.90;99.90
22167;DHT22;11249;52.468;13.776;2022-10-31T17:08:16;12.80;99.90
22167;DHT22;11249;52.468;13.776;2022-10-31T17:10:44;12.80;99.90
22167;DHT22;11249;52.468;13.776;2022-10-31T17:13:19;12.70;99.90
22167;DHT22;11249;52.468;13.776;2022-10-31T17:15:53;12.70;99.90